Time;durP1;ratioP1;P1;durP2;ratioP2;P2;SDS_P1;SDS_P2;PMS_P1;PMS_P2;Temp;Humidity;BMP_temperature;BMP_pressure;BME280_temperature;BME280_humidity;BME280_pressure;Samples;Min_cycle;Max_cycle;Signal;HPM_P1;HPM_P2
2022/05/11 00:01:59;;;;;;;5.95;2.33;;;;;;;7.74;74.92;100266.69;10296015;28;20516;-76
2022/05/11 00:07:00;;;;;;;5.85;2.95;;;;;;;9.22;75.28;100501.72;10296103;28;20053;-75
2022/05/11 00:12:01;;;;;;;11.40;3.00;;;;;;;8.69;75.23;100422.16;10295695;28;20570;-75
2022/05/11 00:17:01;;;;;;;9.02;2.55;;;;;;;8.43;75.34;100410.69;10295029;28;20047;-75
2022/05/11 00:22:02;;;;;;;5.28;2.60;;;;;;;8.98;76.01;100503.19;10295514;28;20039;-75
2022/05/11 00:27:04;;;;;;;13.60;2.60;;;;;;;8.21;76.07;100382.84;10295425;28;20433;-76
2022/05/11 00:32:05;;;;;;;3.85;2.17;;;;;;;8.83;76.32;100494.97;10294379;28;20046;-75
2022/05/11 00:37:06;;;;;;;3.40;1.95;;;;;;;8.74;76.15;100493.22;10294279;28;20503;-76
2022/05/11 00:42:07;;;;;;;10.77;2.70;;;;;;;7.45;76.59;100317.13;10294747;28;20050;-76
2022/05/11 00:47:36;;;;;;;7.10;2.42;;;;;;;4.99;78.11;99931.47;10315203;28;20141;-76
2022/05/11 00:52:51;;;;;;;4.97;2.15;;;;;;;8.32;79.58;100466.50;10318756;28;20042;-75
2022/05/11 00:57:55;;;;;;;9.15;2.58;;;;;;;7.78;78.93;100403.75;10334211;28;20494;-75
2022/05/11 01:03:08;;;;;;;8.85;2.90;;;;;;;8.23;80.36;100484.94;10333999;28;20490;-78
2022/05/11 01:08:10;;;;;;;8.82;3.00;;;;;;;7.34;78.03;100344.59;10333272;28;20045;-76
2022/05/11 01:13:14;;;;;;;11.65;3.97;;;;;;;7.95;79.88;100467.41;10333255;28;20505;-76
2022/05/11 01:18:16;;;;;;;6.95;3.13;;;;;;;7.18;79.44;100370.78;10333175;28;20521;-76
2022/05/11 01:23:35;;;;;;;22.75;3.15;;;;;;;7.85;80.50;100475.41;10333891;28;20098;-76
2022/05/11 01:28:42;;;;;;;11.48;3.45;;;;;;;7.27;80.29;100414.88;10333693;28;20050;-77
2022/05/11 01:33:47;;;;;;;24.05;3.75;;;;;;;7.64;79.95;100475.66;10312339;28;20129;-77
2022/05/11 01:38:49;;;;;;;;;;;;;;;7.79;80.80;100473.34;10293657;28;20375;-77
2022/05/11 01:43:51;;;;;;;9.07;2.80;;;;;;;7.51;79.34;100472.50;10292458;28;19918;-77
2022/05/11 01:48:52;;;;;;;12.82;3.00;;;;;;;7.19;79.94;100418.22;10292552;28;20042;-77
2022/05/11 01:53:53;;;;;;;12.27;2.25;;;;;;;7.63;80.17;100481.06;10292067;28;20034;-77
2022/05/11 01:58:55;;;;;;;7.85;3.08;;;;;;;7.42;80.50;100431.91;10291565;28;20042;-77
2022/05/11 02:03:57;;;;;;;12.90;3.00;;;;;;;7.74;81.15;100479.06;10291960;28;20045;-77
2022/05/11 02:08:58;;;;;;;7.45;3.00;;;;;;;7.95;81.26;100476.16;10292250;28;20141;-77
2022/05/11 02:13:59;;;;;;;18.70;3.15;;;;;;;8.08;80.58;100465.25;10291243;28;20562;-76
2022/05/11 02:19:00;;;;;;;16.77;2.70;;;;;;;8.32;80.18;100479.75;10292084;28;20438;-77
2022/05/11 02:24:01;;;;;;;7.82;2.15;;;;;;;8.42;80.39;100480.53;10309738;28;20047;-77
2022/05/11 02:29:02;;;;;;;33.38;4.68;;;;;;;7.61;80.68;100330.53;10338335;28;20050;-77
2022/05/11 02:34:05;;;;;;;11.35;2.80;;;;;;;7.77;80.74;100338.63;10339379;28;20457;-77
2022/05/11 02:39:06;;;;;;;14.63;2.80;;;;;;;8.81;80.45;100465.13;10339452;28;20038;-77
2022/05/11 02:44:07;;;;;;;8.20;2.60;;;;;;;7.48;80.34;100248.13;10340005;28;20125;-76
2022/05/11 02:49:08;;;;;;;11.70;2.83;;;;;;;7.84;80.09;100282.47;10301332;28;20035;-76
2022/05/11 02:57:22;;;;;;;15.82;2.88;;;;;;;10.03;78.23;100397.81;10482175;28;20503;-77
2022/05/11 03:02:23;;;;;;;7.93;2.63;;;;;;;9.92;77.08;100303.41;10456928;28;20094;-78
2022/05/11 03:07:24;;;;;;;7.15;2.80;;;;;;;10.93;76.85;100451.81;10489594;28;20064;-78
2022/05/11 03:12:26;;;;;;;5.60;3.97;;;;;;;10.23;76.60;100366.44;10490375;28;20051;-78
2022/05/11 03:17:26;;;;;;;12.40;4.43;;;;;;;10.09;76.62;100361.81;10488623;28;20045;-78
2022/05/11 03:22:27;;;;;;;5.93;3.58;;;;;;;10.82;76.66;100485.88;10489066;28;20530;-79
2022/05/11 03:27:28;;;;;;;9.50;4.10;;;;;;;10.22;77.02;100416.06;10457830;28;20114;-77
2022/05/11 03:37:48;;;;;;;6.03;2.90;;;;;;;10.70;77.53;100462.28;10484763;28;20079;-75
2022/05/11 03:42:49;;;;;;;8.30;2.88;;;;;;;11.00;77.60;100483.03;10426749;28;20468;-75
2022/05/11 03:47:51;;;;;;;4.20;2.25;;;;;;;10.39;77.42;100371.81;10406320;28;20037;-75
2022/05/11 03:52:53;;;;;;;6.57;2.63;;;;;;;10.91;77.01;100440.50;10406234;28;20076;-78
2022/05/11 03:57:54;;;;;;;13.43;2.72;;;;;;;10.47;76.69;100360.38;10405145;28;20386;-76
2022/05/11 04:02:56;;;;;;;9.70;2.30;;;;;;;11.13;76.43;100460.28;10423915;28;20037;-80
2022/05/11 04:07:56;;;;;;;5.30;2.70;;;;;;;11.61;75.88;100505.56;10422713;28;20445;-75
2022/05/11 04:13:00;;;;;;;6.80;2.70;;;;;;;11.33;75.68;100446.59;10378293;28;20140;-81
2022/05/11 04:18:01;;;;;;;6.13;2.70;;;;;;;11.54;75.61;100480.63;10377411;28;20076;-73
2022/05/11 04:23:01;;;;;;;5.93;2.70;;;;;;;11.34;74.86;100445.59;10376876;28;20497;-80
2022/05/11 04:28:07;;;;;;;6.70;2.83;;;;;;;11.88;74.35;100491.03;10377148;28;20504;-74
2022/05/11 04:33:08;;;;;;;4.93;2.70;;;;;;;11.93;73.81;100453.22;10377669;28;20410;-78
2022/05/11 04:38:09;;;;;;;4.18;2.65;;;;;;;12.40;71.96;100410.47;10377643;28;20054;-79
2022/05/11 04:43:11;;;;;;;4.57;2.22;;;;;;;13.18;70.95;100499.94;10375421;28;20100;-76
2022/05/11 04:48:14;;;;;;;4.22;2.35;;;;;;;13.28;70.89;100498.88;10376476;28;20049;-76
2022/05/11 04:53:17;;;;;;;8.25;3.00;;;;;;;13.22;69.76;100487.94;10376502;28;20057;-75
2022/05/11 04:58:18;;;;;;;7.97;3.70;;;;;;;12.64;69.70;100376.66;10376084;28;20050;-75
2022/05/11 05:03:19;;;;;;;4.72;2.88;;;;;;;13.46;69.14;100499.38;10376424;28;20145;-75
2022/05/11 05:08:20;;;;;;;4.72;2.85;;;;;;;13.50;68.66;100506.00;10374136;28;20038;-74
2022/05/11 05:13:20;;;;;;;7.47;3.47;;;;;;;12.89;68.12;100388.75;10379380;28;20046;-73
2022/05/11 05:18:21;;;;;;;5.40;3.00;;;;;;;12.74;67.24;100372.72;10381601;28;20042;-75
2022/05/11 05:23:22;;;;;;;4.32;2.53;;;;;;;13.08;67.09;100408.72;10381048;28;20049;-78
2022/05/11 05:33:42;;;;;;;5.82;3.35;;;;;;;14.34;65.00;100517.16;10413538;28;20052;-79
2022/05/11 05:38:43;;;;;;;5.28;2.72;;;;;;;13.67;64.03;100358.00;10392475;28;20042;-81
2022/05/11 05:43:44;;;;;;;17.02;2.90;;;;;;;13.63;63.79;100345.22;10374616;28;20038;-81
2022/05/11 05:48:45;;;;;;;5.18;2.58;;;;;;;14.79;63.68;100522.41;10374715;28;20072;-81
2022/05/11 05:53:46;;;;;;;4.03;2.10;;;;;;;13.47;63.31;100299.03;10405433;28;20076;-80
2022/05/11 05:58:47;;;;;;;7.60;2.65;;;;;;;13.99;62.65;100366.53;10393915;28;20050;-81
2022/05/11 06:03:48;;;;;;;4.90;2.85;;;;;;;15.22;62.66;100535.72;10373404;28;20038;-75
2022/05/11 06:08:49;;;;;;;11.30;3.30;;;;;;;14.96;62.25;100432.84;10373594;28;20089;-82
2022/05/11 06:13:50;;;;;;;7.00;2.65;;;;;;;14.11;60.80;100268.84;10377605;28;20045;-78
2022/05/11 06:18:51;;;;;;;4.78;2.28;;;;;;;15.19;60.13;100431.75;10398054;28;20041;-82
2022/05/11 06:23:52;;;;;;;4.63;2.58;;;;;;;15.44;60.28;100462.41;10373566;28;20092;-79
2022/05/11 06:28:54;;;;;;;4.35;2.50;;;;;;;15.82;59.83;100517.41;10373065;28;20042;-84
2022/05/11 06:33:56;;;;;;;7.65;2.60;;;;;;;15.26;59.25;100411.22;10372131;28;20041;-84
2022/05/11 06:38:57;;;;;;;4.28;2.42;;;;;;;16.30;57.47;100517.41;10374964;28;20049;-84
2022/05/11 06:43:58;;;;;;;6.13;2.42;;;;;;;16.83;55.23;100478.16;10381692;28;20050;-85
2022/05/11 06:48:59;;;;;;;4.70;2.53;;;;;;;16.72;53.58;100398.28;10383506;28;20124;-78
2022/05/11 06:59:22;;;;;;;5.97;2.55;;;;;;;16.43;52.63;100301.13;10405307;28;20046;-86
2022/05/11 07:04:23;;;;;;;10.07;2.72;;;;;;;17.95;51.93;100507.78;10374176;28;20042;-79
2022/05/11 07:09:27;;;;;;;20.70;2.53;;;;;;;17.95;51.18;100480.91;10372788;28;20129;-79
2022/05/11 07:14:28;;;;;;;5.90;2.57;;;;;;;18.42;50.04;100511.06;10373071;28;20135;-74
2022/05/11 07:19:29;;;;;;;7.68;2.42;;;;;;;18.31;49.49;100519.78;10380128;28;20064;-73
2022/05/11 07:24:30;;;;;;;7.22;2.63;;;;;;;18.29;49.65;100497.69;10400274;28;20042;-72
2022/05/11 07:29:30;;;;;;;5.63;2.20;;;;;;;18.44;48.40;100479.41;10371569;28;20034;-70
2022/05/11 07:34:33;;;;;;;5.95;2.40;;;;;;;18.14;48.46;100474.59;10390540;28;20057;-70
2022/05/11 07:39:34;;;;;;;7.82;2.50;;;;;;;17.84;48.78;100485.06;10410356;28;20103;-71
2022/05/11 07:44:35;;;;;;;5.85;2.30;;;;;;;16.67;49.68;100357.81;10409552;28;20037;-70
2022/05/11 07:49:37;;;;;;;9.00;2.78;;;;;;;16.89;49.50;100449.66;10379046;28;20056;-72
2022/05/11 07:54:40;;;;;;;5.13;2.53;;;;;;;17.26;49.41;100483.09;10377599;28;20513;-70
2022/05/11 07:59:56;;;;;;;5.43;2.42;;;;;;;17.52;49.22;100466.09;10378807;28;20394;-71
2022/05/11 08:05:03;;;;;;;5.75;2.28;;;;;;;17.51;47.76;100426.03;10378647;28;20132;-83
2022/05/11 08:10:04;;;;;;;6.80;2.60;;;;;;;17.73;47.53;100489.19;10377489;28;20163;-80
2022/05/11 08:15:06;;;;;;;2.88;1.45;;;;;;;17.31;46.37;100452.94;10379151;28;20103;-77
2022/05/11 08:20:14;;;;;;;3.75;1.80;;;;;;;17.38;44.75;100451.06;10377378;28;20049;-79
2022/05/11 08:25:19;;;;;;;3.15;1.45;;;;;;;17.69;44.54;100368.94;10377499;28;20485;-77
2022/05/11 08:35:43;;;;;;;13.70;1.83;;;;;;;18.48;43.52;100391.81;10414482;28;20045;-81
2022/05/11 08:41:00;;;;;;;3.95;1.70;;;;;;;19.82;40.54;100475.72;10393554;28;20042;-81
2022/05/11 08:46:31;;;;;;;4.45;1.30;;;;;;;20.27;37.75;100472.66;10376030;28;20486;-78
2022/05/11 08:51:46;;;;;;;6.68;1.70;;;;;;;20.30;35.81;100473.03;10375985;28;20045;-75
2022/05/11 08:56:49;;;;;;;3.65;1.50;;;;;;;20.00;36.45;100472.19;10376682;28;20049;-78
2022/05/11 09:01:55;;;;;;;3.50;1.17;;;;;;;19.33;35.88;100370.56;10376451;28;20157;-76
2022/05/11 09:06:57;;;;;;;3.65;1.60;;;;;;;19.88;35.86;100444.34;10375970;28;20128;-74
2022/05/11 09:11:58;;;;;;;4.13;1.63;;;;;;;18.91;35.55;100358.81;10374334;28;20068;-79
2022/05/11 09:16:58;;;;;;;3.78;1.42;;;;;;;19.65;35.73;100462.03;10374819;28;20044;-79
2022/05/11 09:22:17;;;;;;;38.33;6.38;;;;;;;19.35;33.81;100363.09;10382783;28;20049;-81
2022/05/11 09:27:27;;;;;;;13.70;3.42;;;;;;;19.98;33.36;100426.59;10375006;28;20081;-76
2022/05/11 09:32:38;;;;;;;10.65;2.78;;;;;;;19.91;33.48;100398.88;10374995;28;20042;-80
2022/05/11 09:37:47;;;;;;;13.43;1.90;;;;;;;20.55;33.67;100446.97;10388120;28;20506;-76
2022/05/11 09:43:01;;;;;;;18.40;3.50;;;;;;;20.50;33.43;100412.56;10374594;28;20047;-78
2022/05/11 09:48:12;;;;;;;4.47;1.73;;;;;;;19.66;34.65;100352.38;10379937;28;20065;-78
2022/05/11 09:53:27;;;;;;;3.20;1.50;;;;;;;20.03;35.59;100434.00;10385001;28;20050;-81
2022/05/11 09:58:32;;;;;;;3.90;1.70;;;;;;;19.30;36.04;100430.25;10394803;28;20078;-79
2022/05/11 10:03:34;;;;;;;2.95;1.55;;;;;;;19.17;37.10;100433.06;10374338;28;20108;-80
2022/05/11 10:08:43;;;;;;;4.38;1.80;;;;;;;18.67;37.33;100408.88;10373325;28;20049;-79
2022/05/11 10:25:19;;;;;;;9.52;2.00;;;;;;;17.89;37.38;100212.97;10385143;28;20081;-79
2022/05/11 10:30:24;;;;;;;7.47;1.77;;;;;;;19.67;36.88;100422.22;10378703;28;20045;-77
2022/05/11 10:35:46;;;;;;;3.50;1.55;;;;;;;20.05;35.98;100427.31;10400655;28;20037;-74
2022/05/11 10:41:07;;;;;;;5.00;1.80;;;;;;;19.66;35.99;100408.97;10408428;28;20057;-79
2022/05/11 10:46:22;;;;;;;3.30;1.50;;;;;;;19.35;36.56;100332.59;10412829;28;20045;-79
2022/05/11 10:51:41;;;;;;;6.45;1.85;;;;;;;20.03;36.12;100415.94;10413490;28;20531;-78
2022/05/11 10:56:48;;;;;;;2.78;1.50;;;;;;;20.15;35.37;100415.16;10412710;28;20061;-79
2022/05/11 11:01:49;;;;;;;15.88;2.63;;;;;;;18.79;35.69;100185.66;10410474;28;20087;-77
2022/05/11 11:07:13;;;;;;;5.00;1.52;;;;;;;20.26;35.10;100406.28;10395620;28;20128;-76
2022/05/11 11:12:44;;;;;;;7.43;2.28;;;;;;;20.41;34.70;100409.38;10390587;28;20068;-75
2022/05/11 11:17:48;;;;;;;3.03;1.77;;;;;;;19.61;34.02;100310.72;10399716;28;20056;-79
2022/05/11 11:23:07;;;;;;;7.70;2.20;;;;;;;19.39;33.55;100279.94;10419763;28;20053;-79
2022/05/11 11:28:14;;;;;;;5.32;1.70;;;;;;;18.02;34.96;100097.31;10418897;28;20041;-78
2022/05/11 11:33:16;;;;;;;3.20;1.55;;;;;;;19.78;35.02;100407.16;10420655;28;20565;-79
2022/05/11 11:38:30;;;;;;;5.78;1.70;;;;;;;18.78;34.03;100217.09;10420086;28;20049;-78
2022/05/11 11:44:00;;;;;;;;;;;;;;;20.24;35.73;100409.19;10421293;28;20426;-80
2022/05/11 11:49:10;;;;;;;7.63;1.67;;;;;;;19.76;35.33;100403.84;10418466;28;20400;-78
2022/05/11 11:54:12;;;;;;;3.95;1.60;;;;;;;18.38;35.67;100190.63;10420052;28;20107;-77
2022/05/11 11:59:33;;;;;;;3.72;1.50;;;;;;;18.65;36.29;100218.06;10419970;28;20041;-77
2022/05/11 12:04:40;;;;;;;3.60;1.90;;;;;;;19.67;34.78;100335.16;10420061;28;20410;-73
2022/05/11 12:15:20;;;;;;;8.93;2.33;;;;;;;19.63;35.62;100336.63;10419001;28;20043;-77
2022/05/11 12:20:21;;;;;;;3.92;1.85;;;;;;;19.25;35.60;100338.53;10412415;28;20037;-76
2022/05/11 12:25:33;;;;;;;3.85;1.70;;;;;;;19.16;36.25;100385.66;10405127;28;20068;-77
2022/05/11 12:30:42;;;;;;;6.93;2.00;;;;;;;18.91;37.07;100334.56;10411926;28;20401;-82
2022/05/11 12:35:49;;;;;;;4.22;1.85;;;;;;;19.00;36.22;100337.81;10418264;28;20042;-78
2022/05/11 12:40:51;;;;;;;4.05;1.58;;;;;;;18.68;36.44;100276.78;10418240;28;20039;-80
2022/05/11 12:46:04;;;;;;;4.28;1.52;;;;;;;19.40;36.80;100408.19;10433517;28;20045;-81
2022/05/11 12:51:08;;;;;;;9.88;3.10;;;;;;;19.39;36.31;100387.69;10417813;28;20042;-79
2022/05/11 12:56:38;;;;;;;9.40;2.00;;;;;;;19.41;36.94;100384.75;10417844;28;20480;-81
2022/05/11 13:01:40;;;;;;;5.20;1.70;;;;;;;17.92;37.50;100199.09;10416386;28;20057;-81
2022/05/11 13:06:45;;;;;;;7.43;1.67;;;;;;;17.92;37.27;100274.34;10417182;28;20623;-81
2022/05/11 13:11:47;;;;;;;8.32;2.83;;;;;;;18.38;37.90;100399.56;10416233;28;20047;-80
2022/05/11 13:16:51;;;;;;;4.00;1.85;;;;;;;17.36;38.39;100270.53;10416680;28;20075;-84
2022/05/11 13:21:55;;;;;;;7.03;2.25;;;;;;;17.26;39.37;100254.06;10416050;28;20080;-83
2022/05/11 13:26:56;;;;;;;6.28;2.58;;;;;;;16.94;39.53;100212.94;10416111;28;20477;-84
2022/05/11 13:32:25;;;;;;;5.22;2.47;;;;;;;17.13;39.89;100251.44;10415536;28;20072;-83
2022/05/11 13:37:30;;;;;;;5.47;1.63;;;;;;;17.84;39.96;100404.44;10415041;28;20037;-80
2022/05/11 13:42:31;;;;;;;4.22;2.60;;;;;;;17.44;40.35;100417.16;10395113;28;20054;-79
2022/05/11 13:48:13;;;;;;;4.20;2.40;;;;;;;17.14;40.82;100414.97;10374528;28;20501;-80
2022/05/11 13:53:19;;;;;;;6.65;1.95;;;;;;;16.57;40.78;100403.84;10373916;28;20089;-78
2022/05/11 13:58:33;;;;;;;7.10;2.13;;;;;;;16.54;42.68;100467.75;10407397;28;20099;-79
2022/05/11 14:03:40;;;;;;;5.67;2.30;;;;;;;15.67;46.44;100434.50;10414492;28;20136;-79
2022/05/11 14:08:41;;;;;;;3.70;1.90;;;;;;;14.29;46.38;100256.88;10382513;28;20042;-80
2022/05/11 14:13:43;;;;;;;20.13;3.30;;;;;;;14.78;46.79;100338.91;10374267;28;20524;-80
2022/05/11 14:18:47;;;;;;;5.43;1.70;;;;;;;15.05;46.43;100407.59;10373736;28;20048;-80
2022/05/11 14:23:48;;;;;;;4.70;2.15;;;;;;;15.24;47.36;100467.59;10373300;28;20033;-79
2022/05/11 14:28:49;;;;;;;7.80;1.75;;;;;;;14.65;49.15;100417.16;10373506;28;20124;-81
2022/05/11 14:33:53;;;;;;;6.60;1.73;;;;;;;14.10;50.84;100381.25;10373581;28;20046;-78
2022/05/11 14:38:53;;;;;;;4.40;1.60;;;;;;;13.26;52.26;100269.66;10372732;28;20489;-77
2022/05/11 14:43:57;;;;;;;6.18;1.67;;;;;;;14.36;53.71;100501.78;10373138;28;20053;-76
2022/05/11 14:48:58;;;;;;;6.93;1.73;;;;;;;12.47;54.22;100219.56;10372163;28;20468;-78
2022/05/11 14:53:59;;;;;;;3.97;1.90;;;;;;;12.44;54.81;100227.13;10372550;28;20089;-79
2022/05/11 15:04:22;;;;;;;3.70;1.50;;;;;;;14.26;56.13;100503.91;10384013;28;20049;-79
2022/05/11 15:09:26;;;;;;;3.83;1.55;;;;;;;14.16;55.24;100484.69;10404778;28;20131;-80
2022/05/11 15:14:27;;;;;;;8.52;1.92;;;;;;;12.36;54.90;100192.59;10406860;28;20060;-79
2022/05/11 15:19:28;;;;;;;8.52;1.67;;;;;;;14.33;55.21;100530.72;10393293;28;20042;-79
2022/05/11 15:24:29;;;;;;;3.50;1.42;;;;;;;13.20;55.26;100388.56;10409295;28;20095;-76
2022/05/11 15:29:30;;;;;;;6.65;1.60;;;;;;;14.26;55.40;100525.28;10402517;28;20128;-79
2022/05/11 15:34:32;;;;;;;6.88;1.40;;;;;;;13.91;55.23;100490.34;10410422;28;20053;-79
2022/05/11 15:39:33;;;;;;;6.38;1.20;;;;;;;13.20;55.09;100385.91;10409403;28;20151;-81
2022/05/11 15:44:34;;;;;;;3.92;1.23;;;;;;;13.85;54.87;100498.25;10409063;28;20091;-81
2022/05/11 15:49:36;;;;;;;3.42;1.17;;;;;;;13.77;54.27;100496.53;10409283;28;20044;-79
2022/05/11 15:54:37;;;;;;;3.88;1.65;;;;;;;12.16;53.75;100224.25;10395656;28;20065;-80
2022/05/11 15:59:38;;;;;;;2.63;1.40;;;;;;;13.61;53.49;100481.53;10397144;28;20041;-74
2022/05/11 16:04:40;;;;;;;3.50;1.60;;;;;;;12.86;53.72;100383.75;10424243;28;20064;-79
2022/05/11 16:09:41;;;;;;;3.50;1.30;;;;;;;12.22;53.47;100301.56;10408953;28;20124;-76
2022/05/11 16:14:41;;;;;;;2.58;1.30;;;;;;;12.91;54.69;100442.69;10400451;28;20195;-77
2022/05/11 16:19:52;;;;;;;3.70;1.70;;;;;;;11.78;55.32;100291.56;10395985;28;20401;-78
2022/05/11 16:24:53;;;;;;;4.05;2.08;;;;;;;11.55;56.52;100253.50;10392807;28;20474;-77
2022/05/11 16:29:56;;;;;;;3.78;1.73;;;;;;;13.02;57.91;100505.44;10395360;28;20048;-79
2022/05/11 16:34:57;;;;;;;2.70;1.20;;;;;;;12.24;58.56;100416.75;10398115;28;20045;-82
2022/05/11 16:40:03;;;;;;;2.90;1.60;;;;;;;12.90;59.41;100533.53;10385112;28;20176;-77
2022/05/11 16:45:08;;;;;;;7.20;1.60;;;;;;;12.77;61.09;100548.31;10377274;28;20103;-77
2022/05/11 16:50:09;;;;;;;5.55;1.67;;;;;;;12.71;60.67;100546.34;10376245;28;20073;-77
2022/05/11 16:55:10;;;;;;;3.47;1.50;;;;;;;12.71;60.67;100551.69;10377213;28;20061;-77
2022/05/11 17:00:14;;;;;;;5.35;1.95;;;;;;;12.64;61.46;100548.03;10376906;28;20049;-76
2022/05/11 17:05:16;;;;;;;8.10;2.30;;;;;;;11.68;60.77;100397.41;10375884;28;20141;-77
2022/05/11 17:10:17;;;;;;;8.48;2.30;;;;;;;12.62;61.23;100558.03;10376034;28;20046;-77
2022/05/11 17:15:18;;;;;;;4.30;2.40;;;;;;;12.52;61.62;100570.75;10375749;28;20482;-77
2022/05/11 17:20:19;;;;;;;5.82;2.40;;;;;;;12.19;62.11;100522.97;10378908;28;20392;-75
2022/05/11 17:25:20;;;;;;;4.65;2.00;;;;;;;12.04;62.71;100530.88;10403536;28;20053;-76
2022/05/11 17:30:21;;;;;;;5.93;2.25;;;;;;;12.05;63.14;100553.81;10374451;28;20047;-76
2022/05/11 17:35:22;;;;;;;6.50;2.00;;;;;;;12.17;63.75;100583.56;10397005;28;20484;-77
2022/05/11 17:40:23;;;;;;;4.10;2.00;;;;;;;11.29;64.11;100448.75;10387865;28;20079;-78
2022/05/11 17:45:24;;;;;;;4.35;2.78;;;;;;;11.26;64.58;100465.06;10413689;28;20041;-77
2022/05/11 17:50:25;;;;;;;7.03;2.60;;;;;;;8.88;64.80;100083.88;10406182;28;20048;-78
2022/05/11 17:55:27;;;;;;;5.88;2.58;;;;;;;11.86;65.14;100602.16;10413477;28;20057;-78
2022/05/11 18:00:32;;;;;;;3.60;2.03;;;;;;;11.11;65.86;100512.78;10407310;28;20104;-78
2022/05/11 18:05:34;;;;;;;4.75;2.10;;;;;;;10.90;66.11;100502.66;10373804;28;20052;-75
2022/05/11 18:10:35;;;;;;;2.92;1.77;;;;;;;11.49;66.75;100608.00;10405431;28;20124;-76
2022/05/11 18:15:37;;;;;;;3.38;1.80;;;;;;;10.14;67.69;100407.25;10414362;28;20045;-77
2022/05/11 18:20:41;;;;;;;5.78;2.10;;;;;;;10.72;68.30;100532.03;10404925;28;20052;-80
2022/05/11 18:25:42;;;;;;;5.95;1.83;;;;;;;11.15;68.19;100620.44;10372550;28;20058;-77
2022/05/11 18:30:44;;;;;;;5.07;1.95;;;;;;;11.01;68.58;100625.56;10373208;28;20095;-76
2022/05/11 18:35:45;;;;;;;5.82;2.10;;;;;;;10.51;68.94;100560.88;10373016;28;20049;-77
2022/05/11 18:40:45;;;;;;;3.90;1.88;;;;;;;10.62;69.18;100589.81;10372146;28;20042;-77
2022/05/11 18:45:47;;;;;;;3.47;1.80;;;;;;;10.17;69.44;100529.03;10382853;28;20048;-76
2022/05/11 18:50:47;;;;;;;4.35;1.70;;;;;;;10.19;70.11;100546.47;10413541;28;20080;-77
2022/05/11 18:55:48;;;;;;;3.47;1.65;;;;;;;10.30;70.76;100595.84;10413510;28;20064;-78
2022/05/11 19:00:49;;;;;;;6.00;2.40;;;;;;;9.71;71.23;100502.81;10411673;28;20041;-78
2022/05/11 19:05:50;;;;;;;6.47;2.05;;;;;;;9.47;71.39;100462.91;10412707;28;20054;-76
2022/05/11 19:10:55;;;;;;;4.72;2.33;;;;;;;9.31;71.95;100451.25;10413751;28;20079;-77
2022/05/11 19:15:56;;;;;;;6.70;2.40;;;;;;;10.13;72.28;100586.09;10409710;28;20041;-75
2022/05/11 19:20:57;;;;;;;4.97;1.90;;;;;;;9.88;72.37;100561.28;10412200;28;20038;-75
2022/05/11 19:26:00;;;;;;;3.95;2.40;;;;;;;9.26;72.74;100473.91;10391576;28;20038;-75
2022/05/11 19:31:04;;;;;;;5.72;2.30;;;;;;;10.15;73.67;100623.97;10388890;28;20509;-76
2022/05/11 19:36:11;;;;;;;3.90;2.08;;;;;;;10.13;74.07;100629.41;10413822;28;20471;-76
2022/05/11 19:41:15;;;;;;;9.82;2.50;;;;;;;9.78;72.76;100585.25;10381007;28;20037;-76
2022/05/11 19:46:17;;;;;;;6.22;1.92;;;;;;;9.37;72.89;100540.75;10389093;28;20045;-75
2022/05/11 19:51:18;;;;;;;7.20;2.40;;;;;;;8.79;72.82;100453.03;10419470;28;20428;-75
2022/05/11 19:56:20;;;;;;;4.38;1.92;;;;;;;9.14;73.38;100505.97;10419044;28;20056;-76
2022/05/11 20:01:22;;;;;;;4.22;1.98;;;;;;;9.68;73.31;100598.63;10420648;28;20148;-76
2022/05/11 20:06:25;;;;;;;4.45;2.00;;;;;;;9.87;73.93;100655.13;10418586;28;20041;-76
2022/05/11 20:11:32;;;;;;;5.20;2.58;;;;;;;9.69;74.29;100625.97;10418778;28;20041;-76
2022/05/11 20:16:33;;;;;;;6.13;2.30;;;;;;;9.43;73.86;100595.00;10419619;28;20048;-76
2022/05/11 20:21:35;;;;;;;6.95;2.50;;;;;;;9.25;74.11;100587.06;10419054;28;20120;-75
2022/05/11 20:26:36;;;;;;;5.07;2.63;;;;;;;9.16;74.31;100585.34;10418274;28;20047;-75
2022/05/11 20:36:56;;;;;;;7.20;2.30;;;;;;;9.44;74.61;100651.50;10418751;28;20103;-76
2022/05/11 20:41:57;;;;;;;5.95;2.58;;;;;;;7.96;74.77;100419.66;10418421;28;20049;-76
2022/05/11 20:46:58;;;;;;;4.97;2.58;;;;;;;8.67;74.83;100561.00;10397848;28;20075;-76
2022/05/11 20:51:58;;;;;;;5.03;2.70;;;;;;;8.94;75.23;100628.16;10391351;28;20123;-75
2022/05/11 20:56:59;;;;;;;4.53;2.40;;;;;;;7.71;75.05;100439.69;10382890;28;20061;-75
2022/05/11 21:02:00;;;;;;;7.40;2.47;;;;;;;8.17;75.47;100532.34;10417337;28;20045;-76
2022/05/11 21:07:01;;;;;;;4.75;2.88;;;;;;;8.38;75.15;100577.06;10416769;28;20045;-76
2022/05/11 21:12:02;;;;;;;5.22;2.58;;;;;;;7.53;74.89;100459.97;10417666;28;20505;-76
2022/05/11 21:17:03;;;;;;;4.95;2.88;;;;;;;8.67;75.58;100646.63;10432704;28;20087;-76
2022/05/11 21:22:04;;;;;;;5.20;3.08;;;;;;;8.43;75.45;100625.97;10432020;28;20048;-76
2022/05/11 21:27:05;;;;;;;9.27;3.58;;;;;;;7.16;75.74;100437.00;10415644;28;20644;-76
2022/05/11 21:32:06;;;;;;;5.63;2.40;;;;;;;8.36;75.68;100631.97;10415292;28;20037;-76
2022/05/11 21:37:09;;;;;;;4.72;3.05;;;;;;;8.36;75.30;100646.03;10431118;28;20053;-76
2022/05/11 21:42:10;;;;;;;5.65;3.00;;;;;;;7.62;75.44;100521.72;10415670;28;20034;-76
2022/05/11 21:47:14;;;;;;;7.13;3.20;;;;;;;8.27;75.30;100640.78;10415664;28;20072;-76
2022/05/11 21:52:15;;;;;;;10.23;3.60;;;;;;;8.32;75.48;100675.59;10414861;28;20030;-76
2022/05/11 21:57:15;;;;;;;5.85;2.85;;;;;;;7.40;75.89;100544.88;10414172;28;20057;-77
2022/05/11 22:02:16;;;;;;;6.32;3.28;;;;;;;7.38;75.85;100585.63;10413895;28;20042;-76
2022/05/11 22:07:17;;;;;;;11.45;3.50;;;;;;;7.41;76.30;100588.81;10414822;28;20485;-76
2022/05/11 22:12:18;;;;;;;6.32;3.65;;;;;;;7.51;76.98;100625.84;10414416;28;20095;-76
2022/05/11 22:17:18;;;;;;;7.00;3.88;;;;;;;5.85;77.11;100381.22;10414289;28;20141;-76
2022/05/11 22:22:20;;;;;;;5.95;3.63;;;;;;;6.61;77.18;100489.59;10414207;28;20041;-76
2022/05/11 22:27:20;;;;;;;8.25;3.80;;;;;;;6.80;77.18;100505.47;10413531;28;20135;-76
2022/05/11 22:32:23;;;;;;;8.57;4.07;;;;;;;5.51;77.40;100301.69;10376978;28;20048;-76
2022/05/11 22:37:24;;;;;;;8.38;4.00;;;;;;;7.78;77.28;100662.09;10372876;28;20049;-76
2022/05/11 22:42:25;;;;;;;7.32;3.85;;;;;;;6.91;76.83;100536.19;10372576;28;20050;-76
2022/05/11 22:47:26;;;;;;;9.07;4.25;;;;;;;7.16;77.35;100597.34;10372473;28;20049;-76
2022/05/11 22:52:27;;;;;;;5.82;3.47;;;;;;;7.19;77.30;100589.13;10372919;28;20045;-77
2022/05/11 22:57:29;;;;;;;5.82;3.85;;;;;;;7.44;77.57;100654.59;10371753;28;20056;-76
2022/05/11 23:02:30;;;;;;;5.55;3.70;;;;;;;7.09;77.98;100586.50;10373347;28;20501;-76
2022/05/11 23:07:31;;;;;;;7.57;4.70;;;;;;;6.58;78.10;100511.84;10372986;28;20045;-76
2022/05/11 23:12:31;;;;;;;7.75;4.07;;;;;;;6.63;78.30;100508.78;10377769;28;20137;-76
2022/05/11 23:17:33;;;;;;;5.85;3.38;;;;;;;7.32;78.30;100631.94;10380620;28;20129;-77
2022/05/11 23:22:34;;;;;;;4.78;3.40;;;;;;;6.51;77.77;100520.44;10380421;28;20104;-77
2022/05/11 23:27:35;;;;;;;6.40;3.67;;;;;;;7.20;77.71;100644.47;10380223;28;20133;-76
2022/05/11 23:32:36;;;;;;;5.80;3.58;;;;;;;6.27;77.99;100503.19;10379944;28;20576;-76
2022/05/11 23:37:38;;;;;;;6.65;3.67;;;;;;;6.70;78.15;100583.84;10395034;28;20046;-77
2022/05/11 23:42:39;;;;;;;7.07;3.30;;;;;;;7.26;77.94;100701.22;10379205;28;20124;-77
2022/05/11 23:47:42;;;;;;;7.35;3.80;;;;;;;5.89;78.41;100494.19;10379715;28;20457;-76
2022/05/11 23:52:43;;;;;;;6.75;3.30;;;;;;;5.87;78.39;100500.56;10379010;28;20062;-77
2022/05/11 23:57:44;;;;;;;10.10;4.03;;;;;;;6.68;78.64;100651.78;10377729;28;20095;-77
